sensor_id;sensor_type;location;lat;lon;timestamp;P1;P2;P0
26185;PMS7003;20067;48.764;9.176;2023-12-28T00:00:58;7.00;7.00;3.00
26185;PMS7003;20067;48.764;9.176;2023-12-28T00:03:23;7.00;7.00;3.00
26185;PMS7003;20067;48.764;9.176;2023-12-28T00:05:49;7.50;7.50;3.25
26185;PMS7003;20067;48.764;9.176;2023-12-28T00:08:14;6.00;6.00;1.00
26185;PMS7003;20067;48.764;9.176;2023-12-28T00:10:40;6.25;6.00;1.00
26185;PMS7003;20067;48.764;9.176;2023-12-28T00:13:06;6.50;6.50;1.00
26185;PMS7003;20067;48.764;9.176;2023-12-28T00:15:31;6.00;6.00;1.50
26185;PMS7003;20067;48.764;9.176;2023-12-28T00:17:57;5.50;5.00;1.00
26185;PMS7003;20067;48.764;9.176;2023-12-28T00:20:23;10.00;7.00;3.00
26185;PMS7003;20067;48.764;9.176;2023-12-28T00:22:48;9.75;7.00;3.00
26185;PMS7003;20067;48.764;9.176;2023-12-28T00:25:14;6.50;6.00;1.50
26185;PMS7003;20067;48.764;9.176;2023-12-28T00:27:40;7.50;7.00;3.00
26185;PMS7003;20067;48.764;9.176;2023-12-28T00:30:05;6.50;6.50;1.00
26185;PMS7003;20067;48.764;9.176;2023-12-28T00:32:31;6.00;6.00;1.00
26185;PMS7003;20067;48.764;9.176;2023-12-28T00:34:57;6.00;6.00;1.50
26185;PMS7003;20067;48.764;9.176;2023-12-28T00:37:22;6.25;6.00;1.50
26185;PMS7003;20067;48.764;9.176;2023-12-28T00:39:48;7.00;6.25;1.00
26185;PMS7003;20067;48.764;9.176;2023-12-28T00:42:15;8.50;7.00;3.00
26185;PMS7003;20067;48.764;9.176;2023-12-28T00:44:41;6.50;6.00;1.50
26185;PMS7003;20067;48.764;9.176;2023-12-28T00:47:06;7.50;6.75;1.50
26185;PMS7003;20067;48.764;9.176;2023-12-28T00:49:32;6.00;6.00;1.00
26185;PMS7003;20067;48.764;9.176;2023-12-28T00:51:58;8.50;6.00;3.00
26185;PMS7003;20067;48.764;9.176;2023-12-28T00:54:23;7.25;6.75;1.50
26185;PMS7003;20067;48.764;9.176;2023-12-28T00:56:49;6.75;6.75;2.00
26185;PMS7003;20067;48.764;9.176;2023-12-28T00:59:14;6.50;6.00;1.00
26185;PMS7003;20067;48.764;9.176;2023-12-28T01:01:40;9.00;6.00;1.00
26185;PMS7003;20067;48.764;9.176;2023-12-28T01:04:06;9.00;6.00;2.50
26185;PMS7003;20067;48.764;9.176;2023-12-28T01:06:31;6.00;6.00;1.00
26185;PMS7003;20067;48.764;9.176;2023-12-28T01:08:57;6.00;6.00;1.00
26185;PMS7003;20067;48.764;9.176;2023-12-28T01:11:23;6.75;6.00;1.00
26185;PMS7003;20067;48.764;9.176;2023-12-28T01:13:48;9.00;7.00;1.00
26185;PMS7003;20067;48.764;9.176;2023-12-28T01:16:15;6.00;6.00;1.00
26185;PMS7003;20067;48.764;9.176;2023-12-28T01:18:41;9.50;6.00;1.00
26185;PMS7003;20067;48.764;9.176;2023-12-28T01:21:07;7.00;7.00;3.00
26185;PMS7003;20067;48.764;9.176;2023-12-28T01:23:32;6.50;6.25;1.00
26185;PMS7003;20067;48.764;9.176;2023-12-28T01:26:01;5.50;5.50;1.50
26185;PMS7003;20067;48.764;9.176;2023-12-28T01:28:27;6.00;6.00;1.00
26185;PMS7003;20067;48.764;9.176;2023-12-28T01:30:53;4.00;4.00;1.00
26185;PMS7003;20067;48.764;9.176;2023-12-28T01:33:18;6.50;6.50;1.00
26185;PMS7003;20067;48.764;9.176;2023-12-28T01:35:44;7.00;7.00;2.00
26185;PMS7003;20067;48.764;9.176;2023-12-28T01:38:10;6.00;6.00;3.00
26185;PMS7003;20067;48.764;9.176;2023-12-28T01:40:35;7.00;6.00;1.00
26185;PMS7003;20067;48.764;9.176;2023-12-28T01:43:01;6.00;6.00;2.50
26185;PMS7003;20067;48.764;9.176;2023-12-28T01:45:26;6.00;6.00;1.50
26185;PMS7003;20067;48.764;9.176;2023-12-28T01:47:53;6.00;6.00;1.00
26185;PMS7003;20067;48.764;9.176;2023-12-28T01:50:20;6.00;6.00;1.00
26185;PMS7003;20067;48.764;9.176;2023-12-28T01:52:48;9.00;5.00;1.00
26185;PMS7003;20067;48.764;9.176;2023-12-28T01:55:14;7.25;7.25;2.00
26185;PMS7003;20067;48.764;9.176;2023-12-28T01:57:41;6.25;6.00;3.00
26185;PMS7003;20067;48.764;9.176;2023-12-28T02:00:07;8.25;6.75;2.00
26185;PMS7003;20067;48.764;9.176;2023-12-28T02:02:33;6.00;6.00;1.00
26185;PMS7003;20067;48.764;9.176;2023-12-28T02:04:59;10.25;7.00;3.00
26185;PMS7003;20067;48.764;9.176;2023-12-28T02:07:26;9.00;8.00;3.00
26185;PMS7003;20067;48.764;9.176;2023-12-28T02:09:54;9.00;6.00;3.00
26185;PMS7003;20067;48.764;9.176;2023-12-28T02:12:19;6.00;6.00;3.00
26185;PMS7003;20067;48.764;9.176;2023-12-28T02:14:45;9.00;6.00;1.50
26185;PMS7003;20067;48.764;9.176;2023-12-28T02:17:19;6.50;6.50;1.00
26185;PMS7003;20067;48.764;9.176;2023-12-28T02:19:54;6.00;6.00;2.50
26185;PMS7003;20067;48.764;9.176;2023-12-28T02:22:21;4.25;4.25;1.00
26185;PMS7003;20067;48.764;9.176;2023-12-28T02:27:18;6.00;6.00;1.00
26185;PMS7003;20067;48.764;9.176;2023-12-28T02:29:44;6.00;6.00;1.00
26185;PMS7003;20067;48.764;9.176;2023-12-28T02:32:09;8.50;8.25;3.00
26185;PMS7003;20067;48.764;9.176;2023-12-28T02:34:37;10.75;10.75;4.50
26185;PMS7003;20067;48.764;9.176;2023-12-28T02:37:07;10.00;10.00;5.25
26185;PMS7003;20067;48.764;9.176;2023-12-28T02:39:35;9.25;9.00;3.50
26185;PMS7003;20067;48.764;9.176;2023-12-28T02:42:03;9.25;9.25;5.00
26185;PMS7003;20067;48.764;9.176;2023-12-28T02:44:29;9.75;9.75;3.00
26185;PMS7003;20067;48.764;9.176;2023-12-28T02:46:55;10.50;9.00;4.00
26185;PMS7003;20067;48.764;9.176;2023-12-28T02:49:20;8.00;8.00;1.50
26185;PMS7003;20067;48.764;9.176;2023-12-28T02:51:46;6.00;6.00;3.00
26185;PMS7003;20067;48.764;9.176;2023-12-28T02:54:12;9.00;9.00;3.00
26185;PMS7003;20067;48.764;9.176;2023-12-28T02:56:39;6.50;6.00;1.00
26185;PMS7003;20067;48.764;9.176;2023-12-28T02:59:05;9.00;9.00;2.00
26185;PMS7003;20067;48.764;9.176;2023-12-28T03:01:31;4.00;4.00;1.00
26185;PMS7003;20067;48.764;9.176;2023-12-28T03:03:56;5.50;5.50;1.00
26185;PMS7003;20067;48.764;9.176;2023-12-28T03:06:22;6.00;6.00;1.00
26185;PMS7003;20067;48.764;9.176;2023-12-28T03:08:48;8.75;6.00;1.00
26185;PMS7003;20067;48.764;9.176;2023-12-28T03:11:14;7.50;6.00;1.00
26185;PMS7003;20067;48.764;9.176;2023-12-28T03:13:39;4.00;4.00;1.00
26185;PMS7003;20067;48.764;9.176;2023-12-28T03:16:05;6.50;4.00;1.00
26185;PMS7003;20067;48.764;9.176;2023-12-28T03:18:31;6.50;4.50;1.00
26185;PMS7003;20067;48.764;9.176;2023-12-28T03:20:56;8.00;6.50;2.50
26185;PMS7003;20067;48.764;9.176;2023-12-28T03:23:22;6.00;6.00;1.00
26185;PMS7003;20067;48.764;9.176;2023-12-28T03:25:47;7.00;7.00;2.50
26185;PMS7003;20067;48.764;9.176;2023-12-28T03:28:13;6.50;6.50;1.50
26185;PMS7003;20067;48.764;9.176;2023-12-28T03:30:39;8.50;6.00;1.00
26185;PMS7003;20067;48.764;9.176;2023-12-28T03:33:07;8.50;5.00;1.00
26185;PMS7003;20067;48.764;9.176;2023-12-28T03:35:33;6.00;6.00;1.00
26185;PMS7003;20067;48.764;9.176;2023-12-28T03:37:59;6.00;6.00;2.50
26185;PMS7003;20067;48.764;9.176;2023-12-28T03:40:25;7.50;7.50;1.50
26185;PMS7003;20067;48.764;9.176;2023-12-28T03:42:50;6.50;4.50;1.00
26185;PMS7003;20067;48.764;9.176;2023-12-28T03:45:16;9.75;8.00;2.00
26185;PMS7003;20067;48.764;9.176;2023-12-28T03:47:41;8.25;8.25;3.00
26185;PMS7003;20067;48.764;9.176;2023-12-28T03:50:07;12.00;8.00;1.00
26185;PMS7003;20067;48.764;9.176;2023-12-28T03:52:33;6.00;6.00;1.50
26185;PMS7003;20067;48.764;9.176;2023-12-28T03:54:59;7.00;6.00;1.00
26185;PMS7003;20067;48.764;9.176;2023-12-28T03:57:25;6.00;6.00;1.00
26185;PMS7003;20067;48.764;9.176;2023-12-28T03:59:51;9.25;7.75;1.50
26185;PMS7003;20067;48.764;9.176;2023-12-28T04:02:16;7.00;6.00;2.50
26185;PMS7003;20067;48.764;9.176;2023-12-28T04:04:42;7.00;6.00;1.00
26185;PMS7003;20067;48.764;9.176;2023-12-28T04:07:08;4.00;4.00;0.00
26185;PMS7003;20067;48.764;9.176;2023-12-28T04:09:33;6.00;6.00;1.00
26185;PMS7003;20067;48.764;9.176;2023-12-28T04:11:59;7.50;6.00;1.00
26185;PMS7003;20067;48.764;9.176;2023-12-28T04:14:25;8.00;6.00;1.00
26185;PMS7003;20067;48.764;9.176;2023-12-28T04:16:50;4.50;4.50;1.00
26185;PMS7003;20067;48.764;9.176;2023-12-28T04:19:16;6.50;6.50;1.00
26185;PMS7003;20067;48.764;9.176;2023-12-28T04:21:44;6.00;6.00;1.50
26185;PMS7003;20067;48.764;9.176;2023-12-28T04:24:10;6.00;6.00;1.00
26185;PMS7003;20067;48.764;9.176;2023-12-28T04:26:35;6.00;6.00;3.00
26185;PMS7003;20067;48.764;9.176;2023-12-28T04:29:01;6.00;6.00;1.00
26185;PMS7003;20067;48.764;9.176;2023-12-28T04:31:27;6.25;5.25;1.50
26185;PMS7003;20067;48.764;9.176;2023-12-28T04:33:53;7.75;7.00;1.50
26185;PMS7003;20067;48.764;9.176;2023-12-28T04:36:18;9.25;8.00;3.00
26185;PMS7003;20067;48.764;9.176;2023-12-28T04:38:44;10.25;8.00;3.00
26185;PMS7003;20067;48.764;9.176;2023-12-28T04:41:10;6.00;6.00;3.00
26185;PMS7003;20067;48.764;9.176;2023-12-28T04:43:36;8.50;5.50;1.00
26185;PMS7003;20067;48.764;9.176;2023-12-28T04:46:03;6.00;6.00;1.00
26185;PMS7003;20067;48.764;9.176;2023-12-28T04:48:29;8.25;8.25;3.00
26185;PMS7003;20067;48.764;9.176;2023-12-28T04:50:56;7.50;5.75;1.50
26185;PMS7003;20067;48.764;9.176;2023-12-28T04:53:21;6.50;6.50;3.00
26185;PMS7003;20067;48.764;9.176;2023-12-28T04:55:47;6.00;6.00;1.00
26185;PMS7003;20067;48.764;9.176;2023-12-28T04:58:13;10.50;7.00;3.00
26185;PMS7003;20067;48.764;9.176;2023-12-28T05:00:39;8.00;6.50;1.50
26185;PMS7003;20067;48.764;9.176;2023-12-28T05:03:05;7.00;6.50;3.00
26185;PMS7003;20067;48.764;9.176;2023-12-28T05:05:31;6.00;6.00;1.00
26185;PMS7003;20067;48.764;9.176;2023-12-28T05:07:57;8.75;6.50;3.00
26185;PMS7003;20067;48.764;9.176;2023-12-28T05:10:23;9.00;6.50;2.50
26185;PMS7003;20067;48.764;9.176;2023-12-28T05:12:48;8.00;6.00;1.00
26185;PMS7003;20067;48.764;9.176;2023-12-28T05:15:14;7.25;7.25;2.00
26185;PMS7003;20067;48.764;9.176;2023-12-28T05:17:40;7.50;6.00;3.00
26185;PMS7003;20067;48.764;9.176;2023-12-28T05:20:06;7.50;7.00;1.00
26185;PMS7003;20067;48.764;9.176;2023-12-28T05:22:32;6.00;6.00;1.00
26185;PMS7003;20067;48.764;9.176;2023-12-28T05:24:58;4.50;4.50;1.00
26185;PMS7003;20067;48.764;9.176;2023-12-28T05:27:23;6.75;6.00;1.00
26185;PMS7003;20067;48.764;9.176;2023-12-28T05:29:49;4.50;4.50;1.00
26185;PMS7003;20067;48.764;9.176;2023-12-28T05:32:14;5.50;4.00;0.50
26185;PMS7003;20067;48.764;9.176;2023-12-28T05:34:40;4.00;4.00;1.00
26185;PMS7003;20067;48.764;9.176;2023-12-28T05:37:05;8.00;6.50;1.50
26185;PMS7003;20067;48.764;9.176;2023-12-28T05:39:31;4.00;4.00;0.25
26185;PMS7003;20067;48.764;9.176;2023-12-28T05:41:57;6.00;6.00;1.00
26185;PMS7003;20067;48.764;9.176;2023-12-28T05:44:22;9.75;9.00;3.00
26185;PMS7003;20067;48.764;9.176;2023-12-28T05:46:48;7.75;6.75;1.00
26185;PMS7003;20067;48.764;9.176;2023-12-28T05:49:14;10.00;7.00;1.00
26185;PMS7003;20067;48.764;9.176;2023-12-28T05:51:39;6.00;6.00;2.50
26185;PMS7003;20067;48.764;9.176;2023-12-28T05:54:06;5.25;5.00;1.00
26185;PMS7003;20067;48.764;9.176;2023-12-28T05:56:32;6.00;6.00;1.00
26185;PMS7003;20067;48.764;9.176;2023-12-28T05:58:58;6.50;6.00;1.00
26185;PMS7003;20067;48.764;9.176;2023-12-28T06:01:23;5.50;4.50;1.00
26185;PMS7003;20067;48.764;9.176;2023-12-28T06:03:49;5.50;5.50;1.00
26185;PMS7003;20067;48.764;9.176;2023-12-28T06:06:17;6.00;6.00;1.00
26185;PMS7003;20067;48.764;9.176;2023-12-28T06:08:43;6.00;6.00;1.00
26185;PMS7003;20067;48.764;9.176;2023-12-28T06:11:08;6.75;6.00;1.00
26185;PMS7003;20067;48.764;9.176;2023-12-28T06:13:34;6.50;6.50;1.00
26185;PMS7003;20067;48.764;9.176;2023-12-28T06:16:00;6.00;6.00;3.00
26185;PMS7003;20067;48.764;9.176;2023-12-28T06:18:26;6.00;6.00;1.50
26185;PMS7003;20067;48.764;9.176;2023-12-28T06:20:51;6.00;4.00;1.00
26185;PMS7003;20067;48.764;9.176;2023-12-28T06:23:17;4.00;4.00;0.00
26185;PMS7003;20067;48.764;9.176;2023-12-28T06:25:42;7.00;6.00;1.00
26185;PMS7003;20067;48.764;9.176;2023-12-28T06:28:08;4.00;4.00;1.00
26185;PMS7003;20067;48.764;9.176;2023-12-28T06:30:34;6.00;6.00;1.00
26185;PMS7003;20067;48.764;9.176;2023-12-28T06:32:59;4.50;4.50;0.00
26185;PMS7003;20067;48.764;9.176;2023-12-28T06:35:25;5.00;5.00;1.00
26185;PMS7003;20067;48.764;9.176;2023-12-28T06:37:51;4.50;4.00;1.00
26185;PMS7003;20067;48.764;9.176;2023-12-28T06:40:16;6.25;6.00;3.00
26185;PMS7003;20067;48.764;9.176;2023-12-28T06:42:42;7.00;6.00;1.00
26185;PMS7003;20067;48.764;9.176;2023-12-28T06:45:08;6.00;6.00;2.00
26185;PMS7003;20067;48.764;9.176;2023-12-28T06:47:35;6.00;6.00;1.00
26185;PMS7003;20067;48.764;9.176;2023-12-28T06:50:00;9.00;6.00;1.00
26185;PMS7003;20067;48.764;9.176;2023-12-28T06:52:26;9.00;6.00;1.00
26185;PMS7003;20067;48.764;9.176;2023-12-28T06:54:52;6.50;6.50;1.50
26185;PMS7003;20067;48.764;9.176;2023-12-28T06:57:18;6.25;6.00;1.00
26185;PMS7003;20067;48.764;9.176;2023-12-28T06:59:43;7.50;6.00;2.00
26185;PMS7003;20067;48.764;9.176;2023-12-28T07:02:09;6.75;6.75;2.25
26185;PMS7003;20067;48.764;9.176;2023-12-28T07:04:35;5.25;5.25;1.00
26185;PMS7003;20067;48.764;9.176;2023-12-28T07:07:00;6.00;6.00;1.00
26185;PMS7003;20067;48.764;9.176;2023-12-28T07:09:26;6.00;6.00;1.00
26185;PMS7003;20067;48.764;9.176;2023-12-28T07:11:52;6.00;6.00;1.00
26185;PMS7003;20067;48.764;9.176;2023-12-28T07:14:17;6.75;6.00;3.00
26185;PMS7003;20067;48.764;9.176;2023-12-28T07:16:44;6.00;6.00;1.00
26185;PMS7003;20067;48.764;9.176;2023-12-28T07:19:10;5.00;4.50;1.00
26185;PMS7003;20067;48.764;9.176;2023-12-28T07:21:37;6.00;6.00;1.00
26185;PMS7003;20067;48.764;9.176;2023-12-28T07:24:03;6.75;6.75;1.00
26185;PMS7003;20067;48.764;9.176;2023-12-28T07:26:30;5.00;4.50;1.00
26185;PMS7003;20067;48.764;9.176;2023-12-28T07:28:55;7.00;6.00;1.00
26185;PMS7003;20067;48.764;9.176;2023-12-28T07:31:25;6.75;6.75;3.00
26185;PMS7003;20067;48.764;9.176;2023-12-28T07:34:03;6.00;6.00;1.00
26185;PMS7003;20067;48.764;9.176;2023-12-28T07:36:30;7.00;6.25;2.00
26185;PMS7003;20067;48.764;9.176;2023-12-28T07:38:57;5.00;5.00;1.00
26185;PMS7003;20067;48.764;9.176;2023-12-28T07:41:23;6.00;6.00;1.00
26185;PMS7003;20067;48.764;9.176;2023-12-28T07:43:49;7.00;7.00;3.00
26185;PMS7003;20067;48.764;9.176;2023-12-28T07:46:20;8.50;6.25;2.00
26185;PMS7003;20067;48.764;9.176;2023-12-28T07:48:52;6.25;6.00;2.00
26185;PMS7003;20067;48.764;9.176;2023-12-28T07:51:18;6.50;6.50;1.00
26185;PMS7003;20067;48.764;9.176;2023-12-28T07:53:44;12.25;12.25;4.00
26185;PMS7003;20067;48.764;9.176;2023-12-28T07:56:09;10.00;9.50;3.75
26185;PMS7003;20067;48.764;9.176;2023-12-28T07:58:35;8.50;8.50;3.50
26185;PMS7003;20067;48.764;9.176;2023-12-28T08:01:02;11.50;8.50;4.00
26185;PMS7003;20067;48.764;9.176;2023-12-28T08:03:28;9.75;9.75;4.00
26185;PMS7003;20067;48.764;9.176;2023-12-28T08:05:54;11.00;9.25;4.00
26185;PMS7003;20067;48.764;9.176;2023-12-28T08:08:19;9.25;9.25;3.50
26185;PMS7003;20067;48.764;9.176;2023-12-28T08:10:45;9.75;9.50;4.50
26185;PMS7003;20067;48.764;9.176;2023-12-28T08:13:11;7.00;7.00;3.00
26185;PMS7003;20067;48.764;9.176;2023-12-28T08:15:36;10.00;10.00;4.00
26185;PMS7003;20067;48.764;9.176;2023-12-28T08:18:02;9.50;9.50;4.00
26185;PMS7003;20067;48.764;9.176;2023-12-28T08:20:28;10.00;10.00;4.00
26185;PMS7003;20067;48.764;9.176;2023-12-28T08:22:53;10.00;9.00;3.25
26185;PMS7003;20067;48.764;9.176;2023-12-28T08:25:19;10.00;10.00;4.00
26185;PMS7003;20067;48.764;9.176;2023-12-28T08:27:45;10.50;10.00;3.75
26185;PMS7003;20067;48.764;9.176;2023-12-28T08:30:10;10.50;9.50;4.00
26185;PMS7003;20067;48.764;9.176;2023-12-28T08:32:36;16.50;15.00;7.00
26185;PMS7003;20067;48.764;9.176;2023-12-28T08:35:02;15.50;10.00;6.00
26185;PMS7003;20067;48.764;9.176;2023-12-28T08:37:28;15.25;12.00;3.75
26185;PMS7003;20067;48.764;9.176;2023-12-28T08:39:54;16.00;15.00;7.50
26185;PMS7003;20067;48.764;9.176;2023-12-28T08:42:20;15.25;13.75;6.25
26185;PMS7003;20067;48.764;9.176;2023-12-28T08:44:46;12.00;12.00;5.50
26185;PMS7003;20067;48.764;9.176;2023-12-28T08:47:12;14.50;12.25;6.00
26185;PMS7003;20067;48.764;9.176;2023-12-28T08:49:37;12.25;11.50;6.00
26185;PMS7003;20067;48.764;9.176;2023-12-28T08:52:03;10.50;9.00;3.75
26185;PMS7003;20067;48.764;9.176;2023-12-28T08:54:29;20.75;19.25;10.50
26185;PMS7003;20067;48.764;9.176;2023-12-28T08:56:54;12.25;11.00;5.50
26185;PMS7003;20067;48.764;9.176;2023-12-28T08:59:20;12.25;11.50;6.00
26185;PMS7003;20067;48.764;9.176;2023-12-28T09:01:46;9.25;9.25;6.00
26185;PMS7003;20067;48.764;9.176;2023-12-28T09:04:12;9.00;9.00;4.00
26185;PMS7003;20067;48.764;9.176;2023-12-28T09:06:39;10.25;9.00;3.25
26185;PMS7003;20067;48.764;9.176;2023-12-28T09:09:04;11.50;10.50;6.00
26185;PMS7003;20067;48.764;9.176;2023-12-28T09:11:31;10.00;7.50;4.00
26185;PMS7003;20067;48.764;9.176;2023-12-28T09:13:56;9.25;9.25;4.00
26185;PMS7003;20067;48.764;9.176;2023-12-28T09:16:23;12.25;9.75;4.25
26185;PMS7003;20067;48.764;9.176;2023-12-28T09:18:48;12.50;10.75;6.00
26185;PMS7003;20067;48.764;9.176;2023-12-28T09:21:14;14.75;12.75;6.00
26185;PMS7003;20067;48.764;9.176;2023-12-28T09:23:40;12.25;12.25;6.00
26185;PMS7003;20067;48.764;9.176;2023-12-28T09:26:06;9.50;7.00;4.00
26185;PMS7003;20067;48.764;9.176;2023-12-28T09:28:32;12.25;10.00;4.00
26185;PMS7003;20067;48.764;9.176;2023-12-28T09:30:59;10.50;9.00;3.25
26185;PMS7003;20067;48.764;9.176;2023-12-28T09:33:25;12.25;12.00;5.75
26185;PMS7003;20067;48.764;9.176;2023-12-28T09:35:51;10.00;8.75;4.00
26185;PMS7003;20067;48.764;9.176;2023-12-28T09:38:18;16.00;16.00;7.75
26185;PMS7003;20067;48.764;9.176;2023-12-28T09:40:44;8.25;8.25;3.25
26185;PMS7003;20067;48.764;9.176;2023-12-28T09:43:29;6.00;6.00;1.00
26185;PMS7003;20067;48.764;9.176;2023-12-28T09:46:01;6.00;6.00;1.00
26185;PMS7003;20067;48.764;9.176;2023-12-28T09:48:32;6.00;6.00;1.00
26185;PMS7003;20067;48.764;9.176;2023-12-28T09:50:59;4.00;4.00;1.00
26185;PMS7003;20067;48.764;9.176;2023-12-28T09:53:25;9.00;7.00;3.00
26185;PMS7003;20067;48.764;9.176;2023-12-28T09:55:51;6.75;6.00;1.00
26185;PMS7003;20067;48.764;9.176;2023-12-28T09:58:18;4.50;4.50;1.00
26185;PMS7003;20067;48.764;9.176;2023-12-28T10:00:45;5.50;5.00;1.00
26185;PMS7003;20067;48.764;9.176;2023-12-28T10:03:14;7.25;5.00;0.75
26185;PMS7003;20067;48.764;9.176;2023-12-28T10:05:41;5.75;5.75;1.00
26185;PMS7003;20067;48.764;9.176;2023-12-28T10:08:07;10.50;10.50;6.50
26185;PMS7003;20067;48.764;9.176;2023-12-28T10:10:34;7.50;7.00;2.00
26185;PMS7003;20067;48.764;9.176;2023-12-28T10:13:00;12.00;10.50;3.00
26185;PMS7003;20067;48.764;9.176;2023-12-28T10:15:25;4.00;4.00;0.75
26185;PMS7003;20067;48.764;9.176;2023-12-28T10:17:51;6.00;5.00;1.25
26185;PMS7003;20067;48.764;9.176;2023-12-28T10:20:17;5.25;4.25;1.00
26185;PMS7003;20067;48.764;9.176;2023-12-28T10:22:43;18.00;16.75;9.00
26185;PMS7003;20067;48.764;9.176;2023-12-28T10:25:09;7.00;7.00;3.00
26185;PMS7003;20067;48.764;9.176;2023-12-28T10:27:39;6.50;6.50;1.75
26185;PMS7003;20067;48.764;9.176;2023-12-28T10:30:07;5.50;5.00;1.00
26185;PMS7003;20067;48.764;9.176;2023-12-28T10:32:33;5.00;5.00;2.00
26185;PMS7003;20067;48.764;9.176;2023-12-28T10:34:59;5.00;5.00;1.75
26185;PMS7003;20067;48.764;9.176;2023-12-28T10:37:25;7.25;5.00;1.50
26185;PMS7003;20067;48.764;9.176;2023-12-28T10:39:53;7.25;5.50;2.00
26185;PMS7003;20067;48.764;9.176;2023-12-28T10:42:29;6.50;4.75;1.00
26185;PMS7003;20067;48.764;9.176;2023-12-28T10:45:04;5.00;4.25;1.25
26185;PMS7003;20067;48.764;9.176;2023-12-28T10:47:33;8.00;7.00;2.50
26185;PMS7003;20067;48.764;9.176;2023-12-28T10:50:03;5.25;4.25;1.00
26185;PMS7003;20067;48.764;9.176;2023-12-28T10:52:32;5.00;5.00;1.00
26185;PMS7003;20067;48.764;9.176;2023-12-28T10:57:35;4.00;4.00;1.00
26185;PMS7003;20067;48.764;9.176;2023-12-28T11:00:10;8.00;8.00;3.50
26185;PMS7003;20067;48.764;9.176;2023-12-28T11:02:41;7.25;7.00;2.00
26185;PMS7003;20067;48.764;9.176;2023-12-28T11:05:11;5.25;5.25;2.00
26185;PMS7003;20067;48.764;9.176;2023-12-28T11:07:37;7.00;7.00;3.75
26185;PMS7003;20067;48.764;9.176;2023-12-28T11:10:05;9.50;9.25;3.75
26185;PMS7003;20067;48.764;9.176;2023-12-28T11:12:32;13.25;13.00;7.00
26185;PMS7003;20067;48.764;9.176;2023-12-28T11:14:58;12.75;10.50;4.00
26185;PMS7003;20067;48.764;9.176;2023-12-28T11:17:24;10.50;10.50;4.75
26185;PMS7003;20067;48.764;9.176;2023-12-28T11:19:51;9.00;7.75;2.00
26185;PMS7003;20067;48.764;9.176;2023-12-28T11:22:18;13.00;13.00;8.00
26185;PMS7003;20067;48.764;9.176;2023-12-28T11:24:47;10.00;8.50;4.00
26185;PMS7003;20067;48.764;9.176;2023-12-28T11:27:13;7.00;7.00;2.00
26185;PMS7003;20067;48.764;9.176;2023-12-28T11:29:40;4.50;4.00;0.75
26185;PMS7003;20067;48.764;9.176;2023-12-28T11:32:07;5.00;5.00;1.00
26185;PMS7003;20067;48.764;9.176;2023-12-28T11:34:34;6.50;6.50;1.50
26185;PMS7003;20067;48.764;9.176;2023-12-28T11:37:02;5.00;4.75;1.00
26185;PMS7003;20067;48.764;9.176;2023-12-28T11:39:32;7.00;7.00;1.00
26185;PMS7003;20067;48.764;9.176;2023-12-28T11:42:00;7.25;7.00;1.75
26185;PMS7003;20067;48.764;9.176;2023-12-28T11:44:30;7.00;6.00;2.00
26185;PMS7003;20067;48.764;9.176;2023-12-28T11:46:57;4.00;4.00;0.75
26185;PMS7003;20067;48.764;9.176;2023-12-28T11:49:26;5.50;5.00;1.00
26185;PMS7003;20067;48.764;9.176;2023-12-28T11:51:55;4.00;4.00;0.00
26185;PMS7003;20067;48.764;9.176;2023-12-28T11:54:23;4.75;4.75;1.00
26185;PMS7003;20067;48.764;9.176;2023-12-28T11:56:50;5.00;4.00;0.25
26185;PMS7003;20067;48.764;9.176;2023-12-28T11:59:15;4.50;4.50;1.00
26185;PMS7003;20067;48.764;9.176;2023-12-28T12:01:41;5.00;5.00;1.00
26185;PMS7003;20067;48.764;9.176;2023-12-28T12:04:07;5.00;5.00;1.00
26185;PMS7003;20067;48.764;9.176;2023-12-28T12:06:32;4.75;4.75;1.00
26185;PMS7003;20067;48.764;9.176;2023-12-28T12:08:58;4.00;4.00;1.00
26185;PMS7003;20067;48.764;9.176;2023-12-28T12:11:24;7.00;6.00;1.50
26185;PMS7003;20067;48.764;9.176;2023-12-28T12:13:51;4.00;2.00;0.00
26185;PMS7003;20067;48.764;9.176;2023-12-28T12:16:17;4.00;4.00;1.00
26185;PMS7003;20067;48.764;9.176;2023-12-28T12:18:43;4.00;4.00;0.75
26185;PMS7003;20067;48.764;9.176;2023-12-28T12:21:09;4.00;4.00;1.00
26185;PMS7003;20067;48.764;9.176;2023-12-28T12:23:35;5.00;5.00;1.00
26185;PMS7003;20067;48.764;9.176;2023-12-28T12:26:00;6.25;6.25;3.00
26185;PMS7003;20067;48.764;9.176;2023-12-28T12:28:29;6.00;6.00;2.75
26185;PMS7003;20067;48.764;9.176;2023-12-28T12:30:55;5.00;5.00;1.50
26185;PMS7003;20067;48.764;9.176;2023-12-28T12:33:22;7.50;5.00;1.00
26185;PMS7003;20067;48.764;9.176;2023-12-28T12:35:50;5.00;5.00;1.00
26185;PMS7003;20067;48.764;9.176;2023-12-28T12:38:16;5.00;5.00;1.00
26185;PMS7003;20067;48.764;9.176;2023-12-28T12:40:42;6.50;6.50;1.25
26185;PMS7003;20067;48.764;9.176;2023-12-28T12:43:08;5.50;5.00;1.50
26185;PMS7003;20067;48.764;9.176;2023-12-28T12:45:35;5.00;5.00;1.00
26185;PMS7003;20067;48.764;9.176;2023-12-28T12:48:02;4.25;4.25;1.00
26185;PMS7003;20067;48.764;9.176;2023-12-28T12:50:32;5.50;5.50;1.00
26185;PMS7003;20067;48.764;9.176;2023-12-28T12:53:01;4.00;4.00;1.00
26185;PMS7003;20067;48.764;9.176;2023-12-28T12:55:27;4.00;4.00;1.00
26185;PMS7003;20067;48.764;9.176;2023-12-28T12:57:53;4.00;4.00;0.00
26185;PMS7003;20067;48.764;9.176;2023-12-28T13:00:21;5.00;5.00;1.00
26185;PMS7003;20067;48.764;9.176;2023-12-28T13:02:50;4.00;4.00;0.25
26185;PMS7003;20067;48.764;9.176;2023-12-28T13:05:18;5.00;4.00;0.75
26185;PMS7003;20067;48.764;9.176;2023-12-28T13:07:44;5.00;5.00;1.00
26185;PMS7003;20067;48.764;9.176;2023-12-28T13:10:09;5.75;5.00;1.00
26185;PMS7003;20067;48.764;9.176;2023-12-28T13:12:35;4.00;4.00;0.50
26185;PMS7003;20067;48.764;9.176;2023-12-28T13:15:01;4.00;4.00;1.00
26185;PMS7003;20067;48.764;9.176;2023-12-28T13:17:27;4.25;4.00;1.00
26185;PMS7003;20067;48.764;9.176;2023-12-28T13:19:53;6.00;5.00;1.00
26185;PMS7003;20067;48.764;9.176;2023-12-28T13:22:19;4.25;4.00;0.25
26185;PMS7003;20067;48.764;9.176;2023-12-28T13:24:44;5.00;4.25;1.00
26185;PMS7003;20067;48.764;9.176;2023-12-28T13:27:10;5.00;5.00;1.00
26185;PMS7003;20067;48.764;9.176;2023-12-28T13:29:36;8.00;5.00;1.00
26185;PMS7003;20067;48.764;9.176;2023-12-28T13:32:02;7.25;7.00;2.00
26185;PMS7003;20067;48.764;9.176;2023-12-28T13:34:28;8.75;8.75;2.75
26185;PMS7003;20067;48.764;9.176;2023-12-28T13:36:54;7.00;7.00;1.25
26185;PMS7003;20067;48.764;9.176;2023-12-28T13:39:20;5.00;5.00;2.00
26185;PMS7003;20067;48.764;9.176;2023-12-28T13:41:46;8.25;6.75;3.00
26185;PMS7003;20067;48.764;9.176;2023-12-28T13:44:12;5.75;5.75;2.25
26185;PMS7003;20067;48.764;9.176;2023-12-28T13:46:38;7.00;6.25;1.00
26185;PMS7003;20067;48.764;9.176;2023-12-28T13:49:04;4.25;4.25;1.00
26185;PMS7003;20067;48.764;9.176;2023-12-28T13:51:31;4.75;4.75;1.00
26185;PMS7003;20067;48.764;9.176;2023-12-28T13:53:57;4.75;4.50;1.00
26185;PMS7003;20067;48.764;9.176;2023-12-28T13:56:23;4.25;4.00;0.50
26185;PMS7003;20067;48.764;9.176;2023-12-28T13:58:49;5.00;4.75;1.00
26185;PMS7003;20067;48.764;9.176;2023-12-28T14:01:14;5.75;4.75;1.00
26185;PMS7003;20067;48.764;9.176;2023-12-28T14:03:40;4.00;4.00;0.00
26185;PMS7003;20067;48.764;9.176;2023-12-28T14:06:06;4.75;4.25;1.00
26185;PMS7003;20067;48.764;9.176;2023-12-28T14:08:32;5.00;4.00;1.00
26185;PMS7003;20067;48.764;9.176;2023-12-28T14:10:57;5.25;5.00;1.00
26185;PMS7003;20067;48.764;9.176;2023-12-28T14:13:23;4.00;4.00;1.00
26185;PMS7003;20067;48.764;9.176;2023-12-28T14:15:49;7.00;5.00;1.00
26185;PMS7003;20067;48.764;9.176;2023-12-28T14:18:15;5.00;5.00;1.00